createdAt,value
2017-08-19T00:00:46.497Z,1005.4
2017-08-19T00:01:46.481Z,1005.42
2017-08-19T00:02:46.470Z,1005.47
2017-08-19T00:03:46.455Z,1005.44
2017-08-19T00:04:46.442Z,1005.43
2017-08-19T00:05:46.427Z,1005.45
2017-08-19T00:06:46.416Z,1005.45
2017-08-19T00:07:46.402Z,1005.46
2017-08-19T00:08:46.388Z,1005.47
2017-08-19T00:09:46.379Z,1005.46
2017-08-19T00:10:46.362Z,1005.46
2017-08-19T00:11:46.348Z,1005.49
2017-08-19T00:12:46.336Z,1005.5
2017-08-19T00:13:46.319Z,1005.46
2017-08-19T00:14:46.307Z,1005.51
2017-08-19T00:15:46.292Z,1005.51
2017-08-19T00:16:46.279Z,1005.51
2017-08-19T00:17:46.265Z,1005.51
2017-08-19T00:18:46.255Z,1005.54
2017-08-19T00:19:46.239Z,1005.58
2017-08-19T00:20:46.225Z,1005.56
2017-08-19T00:21:46.213Z,1005.55
2017-08-19T00:22:46.198Z,1005.58
2017-08-19T00:23:46.183Z,1005.53
2017-08-19T00:24:46.169Z,1005.57
2017-08-19T00:25:46.160Z,1005.56
2017-08-19T00:26:46.145Z,1005.62
2017-08-19T00:27:46.131Z,1005.59
2017-08-19T00:28:46.116Z,1005.62
2017-08-19T00:29:46.102Z,1005.65
2017-08-19T00:30:46.089Z,1005.63
2017-08-19T00:31:46.074Z,1005.66
2017-08-19T00:32:46.064Z,1005.73
2017-08-19T00:33:46.053Z,1005.75
2017-08-19T00:34:46.034Z,1005.77
2017-08-19T00:35:46.021Z,1005.77
2017-08-19T00:36:46.009Z,1005.77
2017-08-19T00:37:45.996Z,1005.81
2017-08-19T00:38:45.978Z,1005.8
2017-08-19T00:39:45.966Z,1005.8
2017-08-19T00:40:45.952Z,1005.85
2017-08-19T00:41:45.938Z,1005.85
2017-08-19T00:42:45.925Z,1005.84
2017-08-19T00:43:45.913Z,1005.83
2017-08-19T00:44:45.898Z,1005.81
2017-08-19T00:45:45.883Z,1005.83
2017-08-19T00:46:45.870Z,1005.84
2017-08-19T00:47:45.857Z,1005.84
2017-08-19T00:48:45.848Z,1005.86
2017-08-19T00:49:45.828Z,1005.81
2017-08-19T00:50:45.815Z,1005.81
2017-08-19T00:51:45.803Z,1005.84
2017-08-19T00:52:45.990Z,1005.81
2017-08-19T00:53:45.777Z,1005.81
2017-08-19T00:54:45.760Z,1005.82
2017-08-19T00:55:45.747Z,1005.77
2017-08-19T00:56:45.732Z,1005.8
2017-08-19T00:57:45.719Z,1005.75
2017-08-19T00:58:45.707Z,1005.76
2017-08-19T00:59:45.693Z,1005.78
2017-08-19T01:00:45.676Z,1005.81
2017-08-19T01:01:45.667Z,1005.75
2017-08-19T01:02:45.650Z,1005.73
2017-08-19T01:03:45.637Z,1005.75
2017-08-19T01:04:45.624Z,1005.73
2017-08-19T01:05:45.610Z,1005.76
2017-08-19T01:06:45.595Z,1005.74
2017-08-19T01:07:45.583Z,1005.74
2017-08-19T01:08:45.571Z,1005.72
2017-08-19T01:09:45.553Z,1005.73
2017-08-19T01:10:45.541Z,1005.78
2017-08-19T01:11:45.528Z,1005.77
2017-08-19T01:12:45.515Z,1005.75
2017-08-19T01:13:45.500Z,1005.74
2017-08-19T01:14:45.488Z,1005.76
2017-08-19T01:15:45.470Z,1005.8
2017-08-19T01:16:45.459Z,1005.85
2017-08-19T01:17:45.444Z,1005.78
2017-08-19T01:18:45.430Z,1005.8
2017-08-19T01:19:45.415Z,1005.85
2017-08-19T01:20:45.403Z,1005.83
2017-08-19T01:21:45.388Z,1005.82
2017-08-19T01:22:45.376Z,1005.88
2017-08-19T01:23:45.362Z,1005.91
2017-08-19T01:24:45.347Z,1005.91
2017-08-19T01:25:45.333Z,1005.93
2017-08-19T01:26:45.318Z,1005.93
2017-08-19T01:27:45.309Z,1005.97
2017-08-19T01:28:45.295Z,1005.97
2017-08-19T01:29:45.277Z,1006
2017-08-19T01:30:45.266Z,1005.98
2017-08-19T01:31:45.250Z,1005.97
2017-08-19T01:32:45.236Z,1005.99
2017-08-19T01:33:45.222Z,1005.94
2017-08-19T01:34:45.209Z,1005.92
2017-08-19T01:35:45.194Z,1005.92
2017-08-19T01:36:45.202Z,1005.89
2017-08-19T01:37:45.169Z,1005.91
2017-08-19T01:38:45.153Z,1005.87
2017-08-19T01:39:45.140Z,1005.89
2017-08-19T01:40:45.126Z,1005.84
2017-08-19T01:41:45.112Z,1005.86
2017-08-19T01:42:45.097Z,1005.84
2017-08-19T01:43:45.082Z,1005.85
2017-08-19T01:44:45.069Z,1005.85
2017-08-19T01:45:45.055Z,1005.84
2017-08-19T01:46:45.044Z,1005.84
2017-08-19T01:47:45.027Z,1005.88
2017-08-19T01:48:45.013Z,1005.83
2017-08-19T01:49:45.004Z,1005.87
2017-08-19T01:50:44.987Z,1005.85
2017-08-19T01:51:44.971Z,1005.86
2017-08-19T01:52:44.962Z,1005.87
2017-08-19T01:53:44.948Z,1005.89
2017-08-19T01:54:44.929Z,1005.87
2017-08-19T01:55:44.917Z,1005.88
2017-08-19T01:56:44.902Z,1005.87
2017-08-19T01:57:44.889Z,1005.89
2017-08-19T01:58:44.872Z,1005.89
2017-08-19T01:59:44.860Z,1005.9
2017-08-19T02:00:44.846Z,1005.9
2017-08-19T02:01:44.830Z,1005.84
2017-08-19T02:02:44.820Z,1005.84
2017-08-19T02:03:44.806Z,1005.85
2017-08-19T02:04:44.789Z,1005.84
2017-08-19T02:05:44.773Z,1005.84
2017-08-19T02:06:44.761Z,1005.79
2017-08-19T02:07:44.744Z,1005.84
2017-08-19T02:08:44.732Z,1005.83
2017-08-19T02:09:44.718Z,1005.82
2017-08-19T02:10:44.704Z,1005.87
2017-08-19T02:11:44.689Z,1005.86
2017-08-19T02:12:44.679Z,1005.84
2017-08-19T02:13:44.660Z,1005.87
2017-08-19T02:14:44.651Z,1005.84
2017-08-19T02:15:44.638Z,1005.85
2017-08-19T02:16:44.619Z,1005.87
2017-08-19T02:17:44.606Z,1005.89
2017-08-19T02:18:44.593Z,1005.92
2017-08-19T02:19:44.576Z,1005.93
2017-08-19T02:20:44.562Z,1005.89
2017-08-19T02:21:44.547Z,1005.88
2017-08-19T02:22:44.535Z,1005.9
2017-08-19T02:23:44.520Z,1005.89
2017-08-19T02:24:44.507Z,1005.85
2017-08-19T02:25:44.492Z,1005.91
2017-08-19T02:26:44.476Z,1005.9
2017-08-19T02:27:44.463Z,1005.94
2017-08-19T02:28:44.448Z,1005.91
2017-08-19T02:29:44.487Z,1005.92
2017-08-19T02:30:44.423Z,1005.93
2017-08-19T02:31:44.405Z,1005.94
2017-08-19T02:32:44.393Z,1005.95
2017-08-19T02:33:44.377Z,1005.92
2017-08-19T02:34:44.363Z,1005.93
2017-08-19T02:35:44.349Z,1005.91
2017-08-19T02:36:44.335Z,1005.86
2017-08-19T02:37:44.329Z,1005.88
2017-08-19T02:38:44.307Z,1005.89
2017-08-19T02:39:44.292Z,1005.91
2017-08-19T02:40:44.278Z,1005.93
2017-08-19T02:41:44.264Z,1005.88
2017-08-19T02:42:44.249Z,1005.89
2017-08-19T02:43:44.236Z,1005.84
2017-08-19T02:44:44.222Z,1005.84
2017-08-19T02:45:44.208Z,1005.9
2017-08-19T02:46:44.192Z,1005.83
2017-08-19T02:47:44.178Z,1005.86
2017-08-19T02:48:44.168Z,1005.87
2017-08-19T02:49:44.149Z,1005.86
2017-08-19T02:50:44.136Z,1005.85
2017-08-19T02:51:44.121Z,1005.82
2017-08-19T02:52:44.107Z,1005.81
2017-08-19T02:53:44.092Z,1005.8
2017-08-19T02:54:44.078Z,1005.82
2017-08-19T02:55:44.063Z,1005.8
2017-08-19T02:56:44.050Z,1005.82
2017-08-19T02:57:44.035Z,1005.79
2017-08-19T02:58:44.023Z,1005.86
2017-08-19T02:59:44.007Z,1005.85
2017-08-19T03:00:43.991Z,1005.84
2017-08-19T03:01:43.977Z,1005.86
2017-08-19T03:02:43.965Z,1005.84
2017-08-19T03:03:43.951Z,1005.88
2017-08-19T03:04:43.935Z,1005.88
2017-08-19T03:05:43.921Z,1005.86
2017-08-19T03:06:43.908Z,1005.89
2017-08-19T03:07:43.893Z,1005.89
2017-08-19T03:08:43.880Z,1005.88
2017-08-19T03:09:43.865Z,1005.9
2017-08-19T03:10:43.859Z,1005.88
2017-08-19T03:11:43.832Z,1005.9
2017-08-19T03:12:43.820Z,1005.9
2017-08-19T03:13:43.804Z,1005.88
2017-08-19T03:14:43.794Z,1005.93
2017-08-19T03:15:43.775Z,1005.91
2017-08-19T03:16:43.762Z,1005.89
2017-08-19T03:17:43.746Z,1005.88
2017-08-19T03:18:43.731Z,1005.87
2017-08-19T03:19:43.718Z,1005.91
2017-08-19T03:20:43.705Z,1005.9
2017-08-19T03:21:43.689Z,1005.91
2017-08-19T03:22:43.674Z,1005.91
2017-08-19T03:23:43.659Z,1005.95
2017-08-19T03:24:43.647Z,1005.9
2017-08-19T03:25:43.631Z,1005.91
2017-08-19T03:26:43.618Z,1005.9
2017-08-19T03:27:43.602Z,1005.91
2017-08-19T03:28:43.587Z,1005.97
2017-08-19T03:29:43.573Z,1005.94
2017-08-19T03:30:43.558Z,1005.94
2017-08-19T03:31:43.545Z,1005.91
2017-08-19T03:32:43.530Z,1005.94
2017-08-19T03:33:43.515Z,1005.91
2017-08-19T03:34:43.501Z,1005.89
2017-08-19T03:35:43.488Z,1005.94
2017-08-19T03:36:43.472Z,1005.89
2017-08-19T03:37:43.457Z,1005.92
2017-08-19T03:38:43.445Z,1005.93
2017-08-19T03:39:43.430Z,1005.94
2017-08-19T03:40:43.414Z,1005.92
2017-08-19T03:41:43.400Z,1005.93
2017-08-19T03:42:43.385Z,1005.94
2017-08-19T03:43:43.373Z,1005.94
2017-08-19T03:44:43.358Z,1005.95
2017-08-19T03:45:43.342Z,1005.93
2017-08-19T03:46:43.328Z,1005.99
2017-08-19T03:47:43.314Z,1005.98
2017-08-19T03:48:43.299Z,1005.98
2017-08-19T03:49:43.485Z,1005.99
2017-08-19T03:50:43.271Z,1006.02
2017-08-19T03:51:43.253Z,1006.06
2017-08-19T03:52:43.240Z,1005.99
2017-08-19T03:53:43.226Z,1006.04
2017-08-19T03:54:43.212Z,1006.02
2017-08-19T03:55:43.196Z,1006
2017-08-19T03:56:43.181Z,1006.02
2017-08-19T03:57:43.169Z,1006.07
2017-08-19T03:58:43.156Z,1006.03
2017-08-19T03:59:43.138Z,1006.06
2017-08-19T04:00:43.125Z,1006.03
2017-08-19T04:01:43.109Z,1006.06
2017-08-19T04:02:43.096Z,1006.07
2017-08-19T04:03:43.081Z,1006.04
2017-08-19T04:04:43.065Z,1006.09
2017-08-19T04:05:43.052Z,1006.11
2017-08-19T04:06:43.038Z,1006.09
2017-08-19T04:07:43.022Z,1006.12
2017-08-19T04:08:43.010Z,1006.06
2017-08-19T04:09:42.993Z,1006.08
2017-08-19T04:10:42.979Z,1006.06
2017-08-19T04:11:42.964Z,1006.11
2017-08-19T04:12:42.950Z,1006.13
2017-08-19T04:13:42.935Z,1006.1
2017-08-19T04:14:42.922Z,1006.14
2017-08-19T04:15:42.907Z,1006.08
2017-08-19T04:16:42.896Z,1006.09
2017-08-19T04:17:42.876Z,1006.07
2017-08-19T04:18:42.862Z,1006.08
2017-08-19T04:19:42.847Z,1006.07
2017-08-19T04:20:42.833Z,1006.16
2017-08-19T04:21:42.818Z,1006.14
2017-08-19T04:22:42.804Z,1006.08
2017-08-19T04:23:42.789Z,1006.13
2017-08-19T04:24:42.773Z,1006.11
2017-08-19T04:25:42.762Z,1006.11
2017-08-19T04:26:42.747Z,1006.12
2017-08-19T04:27:42.730Z,1006.12
2017-08-19T04:28:42.716Z,1006.15
2017-08-19T04:29:42.701Z,1006.12
2017-08-19T04:30:42.687Z,1006.15
2017-08-19T04:31:42.673Z,1006.09
2017-08-19T04:32:42.657Z,1006.14
2017-08-19T04:33:42.645Z,1006.12
2017-08-19T04:34:42.630Z,1006.14
2017-08-19T04:35:42.616Z,1006.13
2017-08-19T04:36:42.603Z,1006.14
2017-08-19T04:37:42.585Z,1006.16
2017-08-19T04:38:42.571Z,1006.16
2017-08-19T04:39:42.557Z,1006.2
2017-08-19T04:40:42.544Z,1006.15
2017-08-19T04:41:42.529Z,1006.16
2017-08-19T04:42:42.515Z,1006.18
2017-08-19T04:43:42.501Z,1006.18
2017-08-19T04:44:42.485Z,1006.16
2017-08-19T04:45:42.470Z,1006.13
2017-08-19T04:46:42.455Z,1006.14
2017-08-19T04:47:42.439Z,1006.14
2017-08-19T04:48:42.427Z,1006.16
2017-08-19T04:49:42.411Z,1006.2
2017-08-19T04:50:42.399Z,1006.18
2017-08-19T04:51:42.385Z,1006.2
2017-08-19T04:52:42.369Z,1006.18
2017-08-19T04:53:42.356Z,1006.17
2017-08-19T04:54:42.338Z,1006.16
2017-08-19T04:55:42.323Z,1006.16
2017-08-19T04:56:42.313Z,1006.19
2017-08-19T04:57:42.293Z,1006.19
2017-08-19T04:58:42.280Z,1006.19
2017-08-19T04:59:42.267Z,1006.22
2017-08-19T05:00:42.252Z,1006.24
2017-08-19T05:01:42.236Z,1006.19
2017-08-19T05:02:42.223Z,1006.25
2017-08-19T05:03:42.211Z,1006.2
2017-08-19T05:04:42.195Z,1006.28
2017-08-19T05:05:42.180Z,1006.29
2017-08-19T05:06:42.164Z,1006.28
2017-08-19T05:07:42.150Z,1006.25
2017-08-19T05:08:42.135Z,1006.31
2017-08-19T05:09:42.120Z,1006.26
2017-08-19T05:10:42.107Z,1006.25
2017-08-19T05:11:42.092Z,1006.31
2017-08-19T05:12:42.078Z,1006.27
2017-08-19T05:13:42.062Z,1006.31
2017-08-19T05:14:42.059Z,1006.31
2017-08-19T05:15:42.034Z,1006.32
2017-08-19T05:16:42.019Z,1006.32
2017-08-19T05:17:42.281Z,1006.32
2017-08-19T05:18:41.991Z,1006.32
2017-08-19T05:19:41.979Z,1006.28
2017-08-19T05:20:41.961Z,1006.32
2017-08-19T05:21:41.951Z,1006.3
2017-08-19T05:22:41.936Z,1006.32
2017-08-19T05:23:41.923Z,1006.37
2017-08-19T05:24:41.903Z,1006.37
2017-08-19T05:25:41.894Z,1006.34
2017-08-19T05:26:41.927Z,1006.38
2017-08-19T05:27:41.861Z,1006.42
2017-08-19T05:28:41.850Z,1006.39
2017-08-19T05:29:41.833Z,1006.41
2017-08-19T05:30:41.819Z,1006.41
2017-08-19T05:31:41.804Z,1006.47
2017-08-19T05:32:41.789Z,1006.48
2017-08-19T05:33:41.777Z,1006.49
2017-08-19T05:34:41.785Z,1006.47
2017-08-19T05:35:41.748Z,1006.5
2017-08-19T05:36:41.731Z,1006.51
2017-08-19T05:37:41.718Z,1006.54
2017-08-19T05:38:41.704Z,1006.56
2017-08-19T05:39:41.692Z,1006.56
2017-08-19T05:40:41.680Z,1006.54
2017-08-19T05:41:41.662Z,1006.54
2017-08-19T05:42:41.647Z,1006.61
2017-08-19T05:43:41.633Z,1006.57
2017-08-19T05:44:41.621Z,1006.58
2017-08-19T05:45:41.605Z,1006.61
2017-08-19T05:46:41.593Z,1006.59
2017-08-19T05:47:41.579Z,1006.64
2017-08-19T05:48:41.562Z,1006.6
2017-08-19T05:49:41.749Z,1006.61
2017-08-19T05:50:41.542Z,1006.6
2017-08-19T05:51:41.521Z,1006.66
2017-08-19T05:52:41.504Z,1006.67
2017-08-19T05:53:41.490Z,1006.64
2017-08-19T05:54:41.479Z,1006.6
2017-08-19T05:55:41.498Z,1006.62
2017-08-19T05:56:41.449Z,1006.56
2017-08-19T05:57:41.434Z,1006.58
2017-08-19T05:58:41.422Z,1006.57
2017-08-19T05:59:41.407Z,1006.63
2017-08-19T06:00:41.396Z,1006.54
2017-08-19T06:01:41.381Z,1006.59
2017-08-19T06:02:41.369Z,1006.6
2017-08-19T06:03:41.360Z,1006.59
2017-08-19T06:04:41.338Z,1006.62
2017-08-19T06:05:41.323Z,1006.63
2017-08-19T06:06:41.319Z,1006.69
2017-08-19T06:07:41.306Z,1006.68
2017-08-19T06:08:41.288Z,1006.58
2017-08-19T06:09:41.268Z,1006.57
2017-08-19T06:10:41.254Z,1006.51
2017-08-19T06:11:41.240Z,1006.48
2017-08-19T06:12:41.227Z,1006.53
2017-08-19T06:13:41.214Z,1006.42
2017-08-19T06:14:41.199Z,1006.5
2017-08-19T06:15:41.188Z,1006.38
2017-08-19T06:16:41.175Z,1006.33
2017-08-19T06:17:41.158Z,1006.31
2017-08-19T06:18:41.147Z,1006.29
2017-08-19T06:19:41.130Z,1006.29
2017-08-19T06:20:41.119Z,1006.25
2017-08-19T06:21:41.106Z,1006.2
2017-08-19T06:22:41.089Z,1006.27
2017-08-19T06:23:41.076Z,1006.29
2017-08-19T06:24:41.063Z,1006.34
2017-08-19T06:25:41.048Z,1006.3
2017-08-19T06:26:41.037Z,1006.3
2017-08-19T06:27:41.024Z,1006.37
2017-08-19T06:28:41.008Z,1006.39
2017-08-19T06:29:40.993Z,1006.44
2017-08-19T06:30:40.981Z,1006.38
2017-08-19T06:31:40.967Z,1006.46
2017-08-19T06:32:40.953Z,1006.52
2017-08-19T06:33:40.938Z,1006.6
2017-08-19T06:34:40.925Z,1006.56
2017-08-19T06:35:40.911Z,1006.54
2017-08-19T06:36:40.898Z,1006.6
2017-08-19T06:37:40.884Z,1006.59
2017-08-19T06:38:40.873Z,1006.58
2017-08-19T06:39:40.858Z,1006.55
2017-08-19T06:40:40.847Z,1006.52
2017-08-19T06:41:40.832Z,1006.56
2017-08-19T06:42:40.820Z,1006.61
2017-08-19T06:43:40.803Z,1006.58
2017-08-19T06:44:40.789Z,1006.61
2017-08-19T06:45:40.777Z,1006.65
2017-08-19T06:46:40.764Z,1006.68
2017-08-19T06:47:40.750Z,1006.64
2017-08-19T06:48:40.740Z,1006.69
2017-08-19T06:49:40.724Z,1006.74
2017-08-19T06:50:40.709Z,1006.79
2017-08-19T06:51:40.696Z,1006.8
2017-08-19T06:52:40.684Z,1006.74
2017-08-19T06:53:40.674Z,1006.7
2017-08-19T06:54:40.658Z,1006.71
2017-08-19T06:55:40.648Z,1006.8
2017-08-19T06:56:40.632Z,1006.74
2017-08-19T06:57:40.621Z,1006.68
2017-08-19T06:58:40.608Z,1006.69
2017-08-19T06:59:40.595Z,1006.79
2017-08-19T07:00:40.583Z,1006.73
2017-08-19T07:01:40.581Z,1006.68
2017-08-19T07:02:40.557Z,1006.67
2017-08-19T07:03:40.544Z,1006.68
2017-08-19T07:04:40.533Z,1006.61
2017-08-19T07:05:40.521Z,1006.76
2017-08-19T07:06:40.507Z,1006.73
2017-08-19T07:07:40.497Z,1006.69
2017-08-19T07:08:40.484Z,1006.68
2017-08-19T07:09:40.473Z,1006.75
2017-08-19T07:10:40.460Z,1006.69
2017-08-19T07:11:40.451Z,1006.76
2017-08-19T07:12:40.434Z,1006.65
2017-08-19T07:13:40.423Z,1006.68
2017-08-19T07:14:40.415Z,1006.68
2017-08-19T07:15:40.400Z,1006.68
2017-08-19T07:16:40.388Z,1006.71
2017-08-19T07:17:40.374Z,1006.66
2017-08-19T07:18:40.364Z,1006.79
2017-08-19T07:19:40.352Z,1006.74
2017-08-19T07:20:40.339Z,1006.72
2017-08-19T07:21:40.326Z,1006.73
2017-08-19T07:22:40.315Z,1006.73
2017-08-19T07:23:40.304Z,1006.75
2017-08-19T07:24:40.292Z,1006.74
2017-08-19T07:25:40.281Z,1006.79
2017-08-19T07:26:40.274Z,1006.72
2017-08-19T07:27:40.256Z,1006.66
2017-08-19T07:28:40.248Z,1006.91
2017-08-19T07:29:40.237Z,1006.84
2017-08-19T07:30:40.224Z,1006.82
2017-08-19T07:31:40.213Z,1006.81
2017-08-19T07:32:40.198Z,1006.85
2017-08-19T07:33:40.187Z,1006.87
2017-08-19T07:34:40.290Z,1006.81
2017-08-19T07:35:40.168Z,1006.82
2017-08-19T07:36:40.160Z,1006.79
2017-08-19T07:37:40.198Z,1006.9
2017-08-19T07:38:40.129Z,1006.9
2017-08-19T07:39:40.118Z,1006.88
2017-08-19T07:40:40.104Z,1006.87
2017-08-19T07:41:40.094Z,1006.8
2017-08-19T07:42:40.086Z,1006.85
2017-08-19T07:43:40.074Z,1006.85
2017-08-19T07:44:40.060Z,1006.9
2017-08-19T07:45:40.050Z,1006.92
2017-08-19T07:46:40.037Z,1006.91
2017-08-19T07:47:40.027Z,1006.9
2017-08-19T07:48:40.023Z,1006.86
2017-08-19T07:49:40.204Z,1006.91
2017-08-19T07:50:39.991Z,1006.89
2017-08-19T07:51:39.979Z,1006.87
2017-08-19T07:52:39.970Z,1006.8
2017-08-19T07:53:39.960Z,1006.82
2017-08-19T07:54:39.945Z,1006.85
2017-08-19T07:55:39.933Z,1006.82
2017-08-19T07:56:39.923Z,1006.86
2017-08-19T07:57:39.917Z,1006.93
2017-08-19T07:58:39.903Z,1006.87
2017-08-19T07:59:39.889Z,1006.79
2017-08-19T08:00:39.881Z,1006.84
2017-08-19T08:01:39.864Z,1006.84
2017-08-19T08:02:39.854Z,1006.84
2017-08-19T08:03:39.844Z,1006.94
2017-08-19T08:04:39.832Z,1006.87
2017-08-19T08:05:39.822Z,1006.9
2017-08-19T08:06:39.808Z,1006.88
2017-08-19T08:07:39.799Z,1006.91
2017-08-19T08:08:39.787Z,1006.92
2017-08-19T08:09:39.779Z,1007.02
2017-08-19T08:10:39.766Z,1006.87
2017-08-19T08:11:39.758Z,1007.04
2017-08-19T08:12:39.745Z,1006.94
2017-08-19T08:13:39.736Z,1007.03
2017-08-19T08:14:39.723Z,1006.96
2017-08-19T08:15:39.710Z,1007.08
2017-08-19T08:18:08.703Z,1006.93
2017-08-19T08:19:08.714Z,1007.05
2017-08-19T08:20:08.677Z,1007.03
2017-08-19T08:21:08.678Z,1007.04
2017-08-19T08:22:08.662Z,1007.16
2017-08-19T08:23:08.643Z,1007.32
2017-08-19T08:24:08.635Z,1007.07
2017-08-19T08:25:08.624Z,1007.15
2017-08-19T09:12:31.007Z,1007.35
2017-08-19T09:13:30.989Z,1007.41
2017-08-19T09:14:30.980Z,1007.34
2017-08-19T09:15:30.956Z,1007.41
2017-08-19T09:16:30.945Z,1007.31
2017-08-19T09:17:30.944Z,1007.37
2017-08-19T09:18:30.920Z,1007.3
2017-08-19T09:19:30.905Z,1007.39
2017-08-19T09:20:30.897Z,1007.4
2017-08-19T09:21:30.882Z,1007.4
2017-08-19T09:22:30.870Z,1007.26
2017-08-19T09:23:30.861Z,1007.36
2017-08-19T09:24:30.846Z,1007.39
2017-08-19T09:25:30.838Z,1007.44
2017-08-19T09:26:30.824Z,1007.48
2017-08-19T09:27:30.813Z,1007.45
2017-08-19T09:28:30.808Z,1007.43
2017-08-19T09:29:30.816Z,1007.41
2017-08-19T09:30:30.782Z,1007.37
2017-08-19T09:31:30.772Z,1007.41
2017-08-19T09:32:30.762Z,1007.47
2017-08-19T09:33:31.353Z,1007.48
2017-08-19T09:34:30.741Z,1007.35
2017-08-19T09:35:30.730Z,1007.5
2017-08-19T09:36:30.722Z,1007.47
2017-08-19T09:37:30.710Z,1007.58
2017-08-19T09:38:30.700Z,1007.51
2017-08-19T09:39:30.693Z,1007.6
2017-08-19T09:40:30.687Z,1007.46
2017-08-19T09:41:30.672Z,1007.48
2017-08-19T09:42:30.661Z,1007.53
2017-08-19T09:43:30.650Z,1007.46
2017-08-19T09:44:30.639Z,1007.58
2017-08-19T09:45:30.633Z,1007.53
2017-08-19T09:46:30.622Z,1007.61
2017-08-19T09:47:30.612Z,1007.56
2017-08-19T09:48:30.603Z,1007.59
2017-08-19T09:49:30.794Z,1007.6
2017-08-19T09:50:30.583Z,1007.63
2017-08-19T09:51:30.574Z,1007.52
2017-08-19T09:52:30.564Z,1007.53
2017-08-19T09:53:30.556Z,1007.55
2017-08-19T09:54:30.544Z,1007.58
2017-08-19T09:55:30.535Z,1007.57
2017-08-19T09:56:30.524Z,1007.58
2017-08-19T09:57:30.515Z,1007.59
2017-08-19T09:58:30.508Z,1007.59
2017-08-19T09:59:30.500Z,1007.54
2017-08-19T10:00:30.486Z,1007.6
2017-08-19T10:01:30.477Z,1007.61
2017-08-19T10:02:30.468Z,1007.65
2017-08-19T10:03:30.458Z,1007.72
2017-08-19T10:04:30.451Z,1007.68
2017-08-19T10:05:30.438Z,1007.81
2017-08-19T10:06:30.428Z,1007.7
2017-08-19T10:07:30.419Z,1007.7
2017-08-19T10:08:30.409Z,1007.77
2017-08-19T10:09:30.401Z,1007.75
2017-08-19T10:10:30.390Z,1007.73
2017-08-19T10:11:30.380Z,1007.75
2017-08-19T10:12:30.372Z,1007.75
2017-08-19T10:13:30.363Z,1007.7
2017-08-19T10:14:30.353Z,1007.75
2017-08-19T10:15:30.344Z,1007.76
2017-08-19T10:16:30.335Z,1007.69
2017-08-19T10:17:30.328Z,1007.75
2017-08-19T10:18:30.316Z,1007.73
2017-08-19T10:19:30.309Z,1007.7
2017-08-19T10:20:30.305Z,1007.67
2017-08-19T10:21:30.290Z,1007.68
2017-08-19T10:22:30.281Z,1007.71
2017-08-19T10:23:30.273Z,1007.71
2017-08-19T10:24:30.266Z,1007.71
2017-08-19T10:25:30.252Z,1007.69
2017-08-19T10:26:30.245Z,1007.69
2017-08-19T10:27:30.235Z,1007.65
2017-08-19T10:28:30.226Z,1007.71
2017-08-19T10:29:30.218Z,1007.66
2017-08-19T10:30:30.208Z,1007.66
2017-08-19T10:31:30.198Z,1007.66
2017-08-19T10:32:30.193Z,1007.71
2017-08-19T10:33:30.180Z,1007.71
2017-08-19T10:34:30.173Z,1007.7
2017-08-19T10:35:30.161Z,1007.73
2017-08-19T10:36:30.150Z,1007.79
2017-08-19T10:37:30.139Z,1007.79
2017-08-19T10:38:30.130Z,1007.81
2017-08-19T10:39:30.121Z,1007.84
2017-08-19T10:40:30.107Z,1007.87
2017-08-19T10:41:30.099Z,1007.88
2017-08-19T10:42:30.089Z,1007.9
2017-08-19T10:43:30.075Z,1007.91
2017-08-19T10:44:30.068Z,1007.98
2017-08-19T10:45:30.058Z,1007.98
2017-08-19T10:46:30.045Z,1008.04
2017-08-19T10:47:30.035Z,1007.96
2017-08-19T10:48:30.025Z,1008.05
2017-08-19T10:49:30.015Z,1007.98
2017-08-19T10:50:30.005Z,1007.98
2017-08-19T10:51:29.998Z,1007.91
2017-08-19T10:52:29.985Z,1007.95
2017-08-19T10:53:29.975Z,1007.91
2017-08-19T10:54:29.965Z,1007.91
2017-08-19T10:55:29.955Z,1007.9
2017-08-19T10:56:29.950Z,1007.88
2017-08-19T10:57:29.936Z,1007.9
2017-08-19T10:58:29.929Z,1007.93
2017-08-19T10:59:29.920Z,1007.91
2017-08-19T11:00:29.911Z,1007.93
2017-08-19T11:01:29.902Z,1007.93
2017-08-19T11:02:29.892Z,1007.99
2017-08-19T11:03:29.885Z,1007.97
2017-08-19T11:04:29.877Z,1007.9
2017-08-19T11:05:29.867Z,1007.95
2017-08-19T11:06:29.863Z,1007.89
2017-08-19T11:07:29.907Z,1007.96
2017-08-19T11:08:29.858Z,1007.88
2017-08-19T11:09:29.842Z,1008.04
2017-08-19T11:10:29.827Z,1007.87
2017-08-19T11:11:29.821Z,1007.87
2017-08-19T11:12:29.812Z,1007.93
2017-08-19T11:13:29.806Z,1007.81
2017-08-19T11:14:29.799Z,1007.91
2017-08-19T11:15:29.793Z,1008.23
2017-08-19T11:16:29.786Z,1008.17
2017-08-19T11:17:29.786Z,1008.18
2017-08-19T11:18:29.774Z,1008.2
2017-08-19T11:19:29.766Z,1008.14
2017-08-19T11:20:29.767Z,1008.12
2017-08-19T11:21:29.762Z,1008.18
2017-08-19T11:22:29.756Z,1008.03
2017-08-19T11:23:29.750Z,1008
2017-08-19T11:24:29.750Z,1008.01
2017-08-19T11:25:29.746Z,1007.99
2017-08-19T11:26:29.740Z,1008.06
2017-08-19T11:27:29.739Z,1008.03
2017-08-19T11:28:29.733Z,1008.07
2017-08-19T11:29:29.729Z,1008.03
2017-08-19T11:30:29.726Z,1008.07
2017-08-19T11:31:29.727Z,1008.1
2017-08-19T11:32:29.717Z,1008.17
2017-08-19T11:33:29.716Z,1008.37
2017-08-19T11:34:29.709Z,1008.2
2017-08-19T11:35:29.706Z,1008.27
2017-08-19T11:36:29.699Z,1008.22
2017-08-19T11:37:29.695Z,1008.18
2017-08-19T11:38:29.688Z,1008.1
2017-08-19T11:39:29.685Z,1008.16
2017-08-19T11:40:29.681Z,1008.21
2017-08-19T11:41:29.673Z,1008.11
2017-08-19T11:42:29.668Z,1008.16
2017-08-19T11:43:29.664Z,1008.16
2017-08-19T11:44:29.655Z,1008.14
2017-08-19T11:45:29.648Z,1008.15
2017-08-19T11:46:29.642Z,1008.23
2017-08-19T11:47:29.637Z,1008.2
2017-08-19T11:48:29.645Z,1008.32
2017-08-19T11:49:29.823Z,1008.35
2017-08-19T11:50:29.617Z,1008.35
2017-08-19T11:51:29.606Z,1008.4
2017-08-19T11:52:29.599Z,1008.44
2017-08-19T11:53:29.592Z,1008.41
2017-08-19T11:54:29.585Z,1008.43
2017-08-19T11:55:29.577Z,1008.35
2017-08-19T11:56:29.570Z,1008.41
2017-08-19T11:57:29.559Z,1008.43
2017-08-19T11:58:29.700Z,1008.52
2017-08-19T11:59:29.542Z,1008.51
2017-08-19T12:00:29.531Z,1008.47
2017-08-19T12:01:29.525Z,1008.49
2017-08-19T12:02:29.515Z,1008.45
2017-08-19T12:03:29.505Z,1008.57
2017-08-19T12:04:29.498Z,1008.7
2017-08-19T12:05:29.539Z,1008.7
2017-08-19T12:06:29.482Z,1008.66
2017-08-19T12:07:29.476Z,1008.66
2017-08-19T12:08:29.470Z,1008.66
2017-08-19T12:09:29.464Z,1008.69
2017-08-19T12:10:29.457Z,1008.7
2017-08-19T12:11:29.451Z,1008.67
2017-08-19T12:12:29.447Z,1008.69
2017-08-19T12:13:29.444Z,1008.76
2017-08-19T12:14:29.438Z,1008.84
2017-08-19T12:15:29.436Z,1008.8
2017-08-19T12:16:29.434Z,1008.75
2017-08-19T12:17:29.429Z,1008.8
2017-08-19T12:18:29.426Z,1008.77
2017-08-19T12:19:29.426Z,1008.7
2017-08-19T12:20:29.425Z,1008.66
2017-08-19T12:21:29.423Z,1008.65
2017-08-19T12:22:29.426Z,1008.59
2017-08-19T12:23:29.425Z,1008.63
2017-08-19T12:24:29.422Z,1008.72
2017-08-19T12:25:29.422Z,1008.64
2017-08-19T12:26:29.423Z,1008.61
2017-08-19T12:27:29.423Z,1008.61
2017-08-19T12:28:29.425Z,1008.59
2017-08-19T12:29:29.423Z,1008.65
2017-08-19T12:30:29.425Z,1008.65
2017-08-19T12:31:29.431Z,1008.75
2017-08-19T12:32:29.432Z,1008.63
2017-08-19T12:33:29.431Z,1008.69
2017-08-19T12:34:29.454Z,1008.66
2017-08-19T12:35:29.434Z,1008.58
2017-08-19T12:36:29.436Z,1008.62
2017-08-19T12:37:29.440Z,1008.59
2017-08-19T12:38:29.442Z,1008.57
2017-08-19T12:39:29.442Z,1008.61
2017-08-19T12:40:29.443Z,1008.61
2017-08-19T12:41:29.447Z,1008.56
2017-08-19T12:42:29.449Z,1008.55
2017-08-19T12:43:29.447Z,1008.53
2017-08-19T12:44:29.447Z,1008.55
2017-08-19T12:45:29.447Z,1008.5
2017-08-19T12:46:29.445Z,1008.49
2017-08-19T12:47:29.442Z,1008.45
2017-08-19T12:48:29.444Z,1008.43
2017-08-19T12:49:29.436Z,1008.47
2017-08-19T12:50:29.435Z,1008.56
2017-08-19T12:51:29.431Z,1008.52
2017-08-19T12:52:29.429Z,1008.53
2017-08-19T12:53:29.474Z,1008.5
2017-08-19T12:54:29.420Z,1008.51
2017-08-19T12:55:29.466Z,1008.58
2017-08-19T12:56:29.439Z,1008.54